Time;durP1;ratioP1;P1;durP2;ratioP2;P2;SDS_P1;SDS_P2;PMS_P1;PMS_P2;Temp;Humidity;BMP_temperature;BMP_pressure;BME280_temperature;BME280_humidity;BME280_pressure;Samples;Min_cycle;Max_cycle;Signal;HPM_P1;HPM_P2
2022/04/11 00:01:27;;;;;;;7.70;6.38;;;;;;;2.38;83.77;92808.28;5073653;28;20103;-39
2022/04/11 00:03:53;;;;;;;7.10;6.38;;;;;;;2.41;84.12;92818.91;5090805;28;20038;-39
2022/04/11 00:06:19;;;;;;;7.97;6.57;;;;;;;2.37;84.32;92813.00;5077695;28;20048;-39
2022/04/11 00:08:45;;;;;;;8.88;7.15;;;;;;;2.25;84.26;92822.53;5070533;28;20047;-39
2022/04/11 00:11:10;;;;;;;7.93;5.88;;;;;;;2.18;84.75;92818.41;5070763;28;20464;-39
2022/04/11 00:13:36;;;;;;;6.93;5.95;;;;;;;2.19;85.32;92825.31;5070322;28;20486;-39
2022/04/11 00:16:01;;;;;;;15.90;11.68;;;;;;;2.15;85.50;92830.28;5070697;28;20029;-39
2022/04/11 00:18:27;;;;;;;6.43;5.07;;;;;;;2.13;85.28;92830.06;5070540;28;20107;-39
2022/04/11 00:20:52;;;;;;;5.75;5.13;;;;;;;2.09;85.39;92837.78;5070660;28;20024;-39
2022/04/11 00:23:18;;;;;;;5.70;4.82;;;;;;;2.04;86.06;92840.53;5070339;28;20024;-39
2022/04/11 00:25:44;;;;;;;4.95;4.18;;;;;;;2.09;86.46;92847.94;5070544;28;20028;-39
2022/04/11 00:28:09;;;;;;;8.48;5.90;;;;;;;2.05;86.42;92847.47;5070251;28;20024;-40
2022/04/11 05:22:20;;;;;;;1.30;1.20;;;;;;;2.79;88.63;93283.88;5128478;27;20607;-48
2022/04/11 05:24:46;;;;;;;18.38;10.43;;;;;;;2.86;87.14;93294.25;5128720;27;20119;-45
2022/04/11 05:27:11;;;;;;;4.40;2.85;;;;;;;2.76;86.04;93293.06;5122676;27;20407;-46
2022/04/11 05:29:37;;;;;;;2.35;2.15;;;;;;;2.68;85.46;93288.63;5108028;28;20076;-46
2022/04/11 05:32:03;;;;;;;4.80;2.42;;;;;;;2.70;85.38;93291.59;5108076;28;20046;-46
2022/04/11 05:34:28;;;;;;;4.13;2.83;;;;;;;2.65;84.75;93292.34;5108003;28;20020;-45
2022/04/11 05:36:53;;;;;;;18.33;7.07;;;;;;;2.51;85.99;93291.44;5107752;28;20027;-43
2022/04/11 05:39:19;;;;;;;37.40;16.77;;;;;;;2.58;84.84;93296.34;5107700;28;20020;-46
2022/04/11 05:41:44;;;;;;;66.35;34.00;;;;;;;2.45;85.41;93298.84;5107884;28;20020;-45
2022/04/11 05:44:10;;;;;;;44.92;20.63;;;;;;;2.48;85.49;93303.31;5107201;28;20420;-45
2022/04/11 05:46:35;;;;;;;45.90;18.67;;;;;;;2.55;85.26;93294.63;5107729;28;20058;-46
2022/04/11 05:49:00;;;;;;;13.82;8.10;;;;;;;2.50;84.58;93292.66;5107857;28;20496;-47
2022/04/11 05:51:27;;;;;;;7.35;4.63;;;;;;;2.57;84.23;93294.88;5107587;28;20024;-47
2022/04/11 05:53:53;;;;;;;5.10;3.25;;;;;;;2.54;84.65;93300.56;5107675;28;20416;-46
2022/04/11 05:56:18;;;;;;;4.10;2.58;;;;;;;2.52;83.56;93303.81;5107709;28;20016;-48
2022/04/11 05:58:44;;;;;;;2.38;1.70;;;;;;;2.50;84.17;93305.53;5107572;28;20503;-45
2022/04/11 06:01:09;;;;;;;3.97;2.85;;;;;;;2.46;84.41;93308.53;5107328;28;20028;-47
2022/04/11 06:03:38;;;;;;;3.78;1.70;;;;;;;2.46;84.54;93303.06;5107474;28;20049;-44
2022/04/11 06:06:04;;;;;;;3.00;1.50;;;;;;;2.44;83.80;93307.53;5107514;28;20105;-46
2022/04/11 06:08:29;;;;;;;2.83;1.65;;;;;;;2.42;83.46;93315.47;5107390;28;20028;-45
2022/04/11 06:10:55;;;;;;;1.83;1.15;;;;;;;2.30;83.61;93317.47;5106995;28;20435;-45
2022/04/11 06:13:20;;;;;;;1.83;1.40;;;;;;;2.22;84.05;93314.53;5107165;28;20032;-46
2022/04/11 06:15:46;;;;;;;3.80;2.75;;;;;;;2.24;84.28;93322.94;5106929;28;20098;-44
2022/04/11 06:18:11;;;;;;;6.95;3.65;;;;;;;2.27;84.56;93332.09;5106899;28;20019;-45
2022/04/11 06:20:37;;;;;;;2.33;2.10;;;;;;;2.26;85.34;93330.59;5106648;28;20043;-46
2022/04/11 06:23:03;;;;;;;11.27;5.22;;;;;;;2.26;85.20;93330.59;5095005;28;20028;-46
2022/04/11 06:25:29;;;;;;;14.18;7.72;;;;;;;2.18;85.39;93354.16;5093467;28;20457;-45
2022/04/11 06:27:54;;;;;;;18.25;10.68;;;;;;;2.15;85.50;93336.06;5093411;28;20027;-45
2022/04/11 06:42:42;;;;;;;16.98;12.23;;;;;;;3.51;80.68;93348.25;5128413;27;20633;-48
2022/04/11 06:45:07;;;;;;;18.77;12.98;;;;;;;3.61;79.40;93354.88;5128531;27;20504;-46
2022/04/11 06:47:33;;;;;;;29.90;18.25;;;;;;;3.48;78.79;93344.53;5128656;27;20034;-46
2022/04/11 06:49:58;;;;;;;33.15;18.05;;;;;;;3.38;79.12;93351.50;5108362;27;20016;-46
2022/04/11 06:52:24;;;;;;;22.17;13.40;;;;;;;3.51;79.84;93356.44;5108064;28;20031;-46
2022/04/11 06:54:49;;;;;;;11.55;6.95;;;;;;;3.60;80.20;93347.91;5108056;28;20558;-46
2022/04/11 06:57:14;;;;;;;7.47;5.25;;;;;;;3.77;79.19;93354.00;5107960;28;20016;-45
2022/04/11 06:59:40;;;;;;;10.95;6.85;;;;;;;3.95;78.42;93350.66;5107698;28;20028;-45
2022/04/11 07:02:06;;;;;;;20.08;9.70;;;;;;;4.23;76.91;93358.63;5107847;28;20404;-45
2022/04/11 07:04:31;;;;;;;14.20;7.50;;;;;;;4.45;75.53;93361.16;5107518;28;20424;-46
2022/04/11 07:06:56;;;;;;;5.15;3.78;;;;;;;4.59;75.24;93360.03;5107368;28;20023;-46
2022/04/11 07:09:22;;;;;;;4.03;3.60;;;;;;;4.81;75.31;93359.78;5107774;28;20024;-46
2022/04/11 07:11:47;;;;;;;5.45;3.55;;;;;;;4.85;73.11;93367.72;5107570;28;20045;-46
2022/04/11 07:14:13;;;;;;;11.32;7.20;;;;;;;5.11;73.84;93370.69;5107678;28;20024;-45
2022/04/11 07:16:39;;;;;;;6.88;4.55;;;;;;;5.71;73.28;93352.72;5107643;28;20460;-46
2022/04/11 07:19:04;;;;;;;4.97;3.20;;;;;;;6.85;69.46;93371.84;5107333;28;20028;-48
2022/04/11 07:21:30;;;;;;;3.08;2.78;;;;;;;8.32;66.19;93382.28;5107584;28;20016;-50
2022/04/11 07:23:55;;;;;;;4.15;2.38;;;;;;;9.18;60.55;93380.41;5107161;28;20024;-48
2022/04/11 07:26:20;;;;;;;2.97;2.58;;;;;;;10.69;57.39;93381.72;5107497;28;20028;-46
2022/04/11 07:28:47;;;;;;;2.60;2.40;;;;;;;11.74;52.91;93385.69;5107307;28;20019;-46
2022/04/11 07:31:13;;;;;;;3.30;2.60;;;;;;;11.38;49.50;93391.47;5107010;28;20488;-45
2022/04/11 07:33:38;;;;;;;4.25;3.03;;;;;;;10.58;51.32;93399.38;5107019;28;20054;-45
2022/04/11 07:36:04;;;;;;;13.45;9.10;;;;;;;9.60;52.94;93384.50;5106981;28;20019;-43
2022/04/11 07:38:29;;;;;;;21.05;13.05;;;;;;;8.98;54.44;93393.69;5106058;28;20024;-44
2022/04/11 07:40:55;;;;;;;26.05;15.25;;;;;;;7.98;57.50;93400.06;5106206;28;20032;-43
2022/04/11 07:43:21;;;;;;;19.77;11.43;;;;;;;7.70;58.30;93400.66;5095118;28;20028;-43
2022/04/11 07:45:48;;;;;;;22.23;12.98;;;;;;;7.15;60.49;93412.72;5093111;28;20024;-44
2022/04/11 07:48:14;;;;;;;19.10;11.68;;;;;;;6.69;60.79;93411.28;5093142;28;20519;-42
2022/04/11 07:50:39;;;;;;;10.85;6.90;;;;;;;6.36;62.32;93417.31;5093029;28;20020;-42
2022/04/11 07:53:05;;;;;;;12.80;6.38;;;;;;;6.13;63.42;93418.91;5093342;28;20035;-43
2022/04/11 07:55:31;;;;;;;16.92;7.90;;;;;;;6.03;64.95;93421.28;5091887;28;20556;-42
2022/04/11 07:57:57;;;;;;;10.27;6.30;;;;;;;5.99;64.72;93421.59;5093201;28;20020;-42
2022/04/11 08:00:23;;;;;;;10.80;6.60;;;;;;;5.92;64.96;93424.94;5092954;28;20020;-42
2022/04/11 08:02:54;;;;;;;18.92;10.63;;;;;;;6.15;65.89;93421.88;5092878;28;20097;-42
2022/04/11 08:05:20;;;;;;;3.90;3.40;;;;;;;6.35;64.72;93429.53;5093162;28;20078;-42
2022/04/11 08:07:46;;;;;;;15.38;9.20;;;;;;;6.44;64.19;93431.88;5093055;28;20493;-42
2022/04/11 08:10:12;;;;;;;17.85;12.48;;;;;;;6.26;63.09;93400.50;5092690;28;20016;-42
2022/04/11 08:12:38;;;;;;;14.77;9.40;;;;;;;6.58;63.35;93436.16;5092987;28;20031;-42
2022/04/11 08:15:03;;;;;;;29.65;11.65;;;;;;;6.68;62.93;93437.25;5092936;28;20052;-42
2022/04/11 08:17:29;;;;;;;14.13;8.35;;;;;;;6.58;62.28;93447.13;5092870;28;20107;-42
2022/04/11 08:19:54;;;;;;;8.38;5.13;;;;;;;6.31;62.16;93443.56;5092541;28;20432;-41
2022/04/11 08:22:20;;;;;;;9.45;5.75;;;;;;;6.18;62.97;93453.72;5092847;28;20028;-42
2022/04/11 08:24:45;;;;;;;7.30;4.75;;;;;;;6.25;62.63;93459.34;5092721;28;20027;-41
2022/04/11 08:27:11;;;;;;;7.15;3.72;;;;;;;6.49;61.78;93461.97;5092763;28;20484;-41
2022/04/11 08:29:36;;;;;;;5.63;3.65;;;;;;;7.06;61.59;93455.03;5092403;28;20069;-41
2022/04/11 08:32:02;;;;;;;4.18;2.90;;;;;;;7.68;59.59;93460.91;5092256;28;20028;-41
2022/04/11 08:34:27;;;;;;;6.75;3.88;;;;;;;7.19;59.06;93451.59;5092501;28;20020;-41
2022/04/11 08:36:53;;;;;;;5.70;3.47;;;;;;;6.66;61.14;93469.94;5107307;28;20035;-40
2022/04/11 08:39:18;;;;;;;4.32;3.47;;;;;;;6.17;61.96;93472.19;5108236;28;20534;-39
2022/04/11 08:41:44;;;;;;;5.13;3.90;;;;;;;5.85;63.80;93474.09;5092009;28;20040;-40
2022/04/11 08:44:12;;;;;;;3.53;3.22;;;;;;;5.92;63.60;93473.50;5092117;28;20410;-40
2022/04/11 08:46:39;;;;;;;8.88;5.10;;;;;;;5.99;64.04;93470.19;5092312;28;20024;-40
2022/04/11 08:49:08;;;;;;;6.95;4.75;;;;;;;6.19;63.48;93480.63;5091953;28;20481;-39
2022/04/11 08:51:35;;;;;;;6.18;3.92;;;;;;;6.44;62.74;93484.75;5091844;28;20103;-39
2022/04/11 08:54:02;;;;;;;5.18;3.38;;;;;;;6.52;61.70;93480.13;5090902;28;20566;-40
2022/04/11 08:56:29;;;;;;;4.38;3.40;;;;;;;6.52;61.53;93480.13;5092088;28;20099;-39
2022/04/11 08:58:55;;;;;;;5.05;3.92;;;;;;;6.53;63.66;93476.13;5091765;28;20035;-40
2022/04/11 09:01:21;;;;;;;5.90;4.43;;;;;;;6.45;61.93;93483.50;5091842;28;20024;-40
2022/04/11 09:03:47;;;;;;;4.88;4.05;;;;;;;6.35;63.10;93484.38;5092013;28;20024;-39
2022/04/11 09:06:17;;;;;;;9.57;5.45;;;;;;;6.36;62.80;93483.13;5091990;28;20428;-39
2022/04/11 09:08:55;;;;;;;5.13;3.00;;;;;;;6.24;63.38;93484.56;5091906;28;20081;-39
2022/04/11 09:11:31;;;;;;;7.72;4.82;;;;;;;6.34;65.61;93480.16;5091885;28;20054;-40
2022/04/11 09:13:59;;;;;;;5.28;3.75;;;;;;;6.55;63.66;93479.09;5091150;28;20028;-39
2022/04/11 09:16:25;;;;;;;7.57;4.75;;;;;;;6.96;61.62;93478.69;5090365;28;20020;-40
2022/04/11 09:18:52;;;;;;;9.23;6.07;;;;;;;7.34;61.36;93488.25;5091666;28;20024;-39
2022/04/11 09:21:19;;;;;;;11.65;5.78;;;;;;;7.38;60.42;93487.94;5091661;28;20447;-40
2022/04/11 09:23:46;;;;;;;6.45;4.63;;;;;;;7.57;61.30;93494.06;5091246;28;20511;-40
2022/04/11 09:26:19;;;;;;;6.90;4.15;;;;;;;7.87;60.54;93493.75;5091352;28;20028;-40
2022/04/11 09:29:01;;;;;;;11.13;6.75;;;;;;;8.27;59.29;93486.94;5091140;28;20027;-39
2022/04/11 09:31:27;;;;;;;33.22;19.52;;;;;;;8.36;58.85;93489.22;5091928;28;20023;-39
2022/04/11 09:33:52;;;;;;;17.48;11.13;;;;;;;8.36;58.03;93469.97;5111832;28;20042;-39
2022/04/11 09:36:20;;;;;;;6.60;4.93;;;;;;;8.58;56.79;93491.50;5111442;28;20031;-39
2022/04/11 09:38:59;;;;;;;7.43;5.53;;;;;;;8.80;56.14;93496.50;5111627;28;20102;-40
2022/04/11 09:41:29;;;;;;;7.72;4.03;;;;;;;9.00;54.11;93490.28;5090762;28;20040;-40
2022/04/11 09:43:55;;;;;;;4.90;3.90;;;;;;;9.07;53.20;93483.34;5091272;28;20032;-39
2022/04/11 09:46:21;;;;;;;3.80;3.50;;;;;;;9.14;53.90;93480.66;5091269;28;20381;-39
2022/04/11 09:48:46;;;;;;;3.67;3.10;;;;;;;9.02;53.81;93482.22;5090767;28;20038;-40
2022/04/11 09:51:13;;;;;;;11.52;3.88;;;;;;;9.03;52.60;93483.66;5091074;28;20027;-39
2022/04/11 09:53:39;;;;;;;5.25;3.13;;;;;;;9.49;53.25;93473.00;5091015;28;20103;-39
2022/04/11 09:56:06;;;;;;;7.25;3.60;;;;;;;9.71;51.71;93483.44;5090574;28;20099;-39
2022/04/11 09:58:37;;;;;;;4.43;3.88;;;;;;;9.78;51.36;93477.97;5088940;28;20085;-39
2022/04/11 10:01:04;;;;;;;6.35;4.03;;;;;;;9.68;51.27;93479.03;5089935;28;20032;-39
2022/04/11 10:03:30;;;;;;;19.90;11.57;;;;;;;9.66;52.10;93479.53;5089825;28;20055;-39
2022/04/11 10:05:56;;;;;;;21.58;10.20;;;;;;;9.58;52.60;93486.28;5089557;28;20026;-39
2022/04/11 10:08:26;;;;;;;39.72;17.67;;;;;;;9.72;52.33;93485.66;5090163;28;20179;-40
2022/04/11 10:10:53;;;;;;;28.05;13.90;;;;;;;9.38;52.37;93487.06;5089571;28;20016;-40
2022/04/11 10:13:19;;;;;;;35.40;14.80;;;;;;;9.49;52.83;93492.28;5090331;28;20032;-39
2022/04/11 10:15:46;;;;;;;38.25;17.35;;;;;;;9.16;54.04;93491.13;5090531;28;20020;-39
2022/04/11 10:18:14;;;;;;;31.90;16.02;;;;;;;9.20;53.08;93485.28;5090804;28;20016;-39
2022/04/11 10:20:42;;;;;;;20.00;10.90;;;;;;;9.44;54.69;93482.88;5089576;28;20024;-39
2022/04/11 10:23:10;;;;;;;7.65;4.90;;;;;;;10.13;51.81;93482.06;5090647;28;20487;-39
2022/04/11 10:25:43;;;;;;;4.13;3.30;;;;;;;10.62;51.37;93462.53;5090654;28;20031;-39
2022/04/11 10:28:42;;;;;;;3.92;3.47;;;;;;;11.04;50.15;93474.75;5094996;28;20076;-39
2022/04/11 10:31:12;;;;;;;8.85;5.68;;;;;;;12.13;47.70;93470.78;5102944;28;20057;-39
2022/04/11 10:33:45;;;;;;;19.70;9.18;;;;;;;13.37;45.16;93489.19;5110956;28;20020;-40
2022/04/11 10:36:45;;;;;;;10.93;7.85;;;;;;;13.29;44.06;93488.50;5110623;28;20024;-39
2022/04/11 10:39:14;;;;;;;4.85;3.42;;;;;;;12.60;44.69;93490.19;5047615;28;20028;-40
2022/04/11 10:41:54;;;;;;;4.95;3.30;;;;;;;12.10;45.48;93483.72;5081864;28;20040;-39
2022/04/11 10:44:32;;;;;;;4.78;3.20;;;;;;;11.85;47.82;93480.06;5090228;28;20028;-39
2022/04/11 10:47:10;;;;;;;4.25;3.35;;;;;;;11.24;47.76;93487.66;5090380;28;20097;-40
2022/04/11 10:49:44;;;;;;;6.60;3.20;;;;;;;11.04;48.60;93483.03;5090119;28;20024;-39
2022/04/11 10:52:29;;;;;;;4.00;2.80;;;;;;;11.16;50.23;93475.88;5090047;28;20578;-39
2022/04/11 10:54:55;;;;;;;5.40;3.17;;;;;;;12.06;48.34;93475.03;5090413;28;20024;-40
2022/04/11 10:58:00;;;;;;;15.15;5.68;;;;;;;13.05;46.90;93469.81;5090420;28;20016;-39
2022/04/11 11:00:31;;;;;;;12.02;6.78;;;;;;;14.18;44.13;93473.66;5047381;28;20553;-39
2022/04/11 11:02:57;;;;;;;9.50;3.95;;;;;;;14.32;39.72;93458.88;5047410;28;20108;-40
2022/04/11 12:20:24;;;;;;;5.20;3.22;;;;;;;11.18;45.90;93472.53;5128720;28;20108;-40
2022/04/11 12:23:00;;;;;;;4.20;3.30;;;;;;;11.91;44.78;93469.53;5118107;27;20512;-39
2022/04/11 12:25:28;;;;;;;11.25;2.85;;;;;;;11.75;40.95;93479.19;5107666;28;20073;-40
2022/04/11 12:28:15;;;;;;;3.88;3.22;;;;;;;10.97;42.88;93475.47;5108050;28;20040;-40
2022/04/11 12:30:44;;;;;;;4.60;3.50;;;;;;;10.64;44.30;93474.50;5107838;28;20024;-39
2022/04/11 12:33:28;;;;;;;5.57;5.07;;;;;;;10.52;44.43;93475.38;5107981;28;20032;-40
2022/04/11 12:36:14;;;;;;;6.03;3.28;;;;;;;10.45;46.68;93473.34;5107932;28;20460;-39
2022/04/11 12:38:45;;;;;;;4.28;3.65;;;;;;;10.34;46.18;93474.41;5111302;28;20019;-40
2022/04/11 12:41:29;;;;;;;4.50;3.45;;;;;;;10.18;46.24;93472.84;5128324;27;20019;-40
2022/04/11 12:43:59;;;;;;;7.55;5.38;;;;;;;10.24;47.30;93467.19;5128121;27;20411;-39
2022/04/11 12:46:24;;;;;;;6.85;5.55;;;;;;;10.69;48.18;93461.81;5128216;27;20071;-39
2022/04/11 12:48:57;;;;;;;3.10;2.78;;;;;;;10.77;44.40;93464.56;5128141;27;20031;-39
2022/04/11 12:51:23;;;;;;;5.65;3.30;;;;;;;10.72;45.38;93465.50;5127860;27;20551;-39
2022/04/11 12:53:48;;;;;;;8.00;4.57;;;;;;;10.87;46.50;93465.53;5127736;27;20015;-39
2022/04/11 12:56:14;;;;;;;6.63;5.13;;;;;;;10.57;42.77;93457.91;5127781;27;20026;-39
2022/04/11 12:58:39;;;;;;;3.30;3.00;;;;;;;10.41;43.54;93468.19;5128032;27;20042;-39
2022/04/11 13:01:05;;;;;;;3.72;2.83;;;;;;;9.81;42.70;93463.09;5127642;27;20026;-39
2022/04/11 13:03:30;;;;;;;6.82;5.07;;;;;;;10.14;46.19;93475.22;5127578;27;20055;-39
2022/04/11 13:05:57;;;;;;;7.05;3.92;;;;;;;10.11;42.48;93470.09;5127403;27;20016;-38
2022/04/11 13:08:26;;;;;;;7.45;5.40;;;;;;;9.90;42.37;93470.13;5127475;27;20106;-38
2022/04/11 13:10:51;;;;;;;20.77;8.65;;;;;;;9.59;43.15;93469.22;5127515;27;20018;-39
2022/04/11 13:13:17;;;;;;;9.57;5.72;;;;;;;9.61;44.76;93449.38;5123722;27;20020;-39
2022/04/11 13:18:27;;;;;;;6.65;3.83;;;;;;;10.54;46.79;93461.78;5093561;28;20443;-39
2022/04/11 13:20:53;;;;;;;5.70;3.95;;;;;;;10.90;43.37;93447.84;5093435;28;20027;-39
2022/04/11 13:23:19;;;;;;;6.10;3.15;;;;;;;11.13;42.38;93462.41;5093404;28;20110;-39
2022/04/11 13:25:44;;;;;;;5.45;3.20;;;;;;;10.98;40.13;93457.59;5092995;28;20465;-39
2022/04/11 13:28:10;;;;;;;9.05;4.93;;;;;;;10.97;42.00;93461.66;5093373;28;20035;-39
2022/04/11 13:30:35;;;;;;;8.30;5.68;;;;;;;10.95;42.59;93458.72;5093317;28;20469;-39
2022/04/11 13:33:01;;;;;;;13.77;5.60;;;;;;;10.87;41.01;93473.81;5092922;28;20523;-39
2022/04/11 13:35:27;;;;;;;5.70;3.80;;;;;;;10.64;39.04;93466.22;5092896;28;20021;-39
2022/04/11 13:37:52;;;;;;;5.00;3.58;;;;;;;10.60;42.66;93460.31;5093103;28;20027;-39
2022/04/11 13:40:17;;;;;;;6.65;3.20;;;;;;;10.46;41.23;93464.50;5093128;28;20462;-39
2022/04/11 13:42:43;;;;;;;3.15;2.63;;;;;;;10.72;40.03;93471.75;5093109;28;20031;-39
2022/04/11 13:45:09;;;;;;;3.33;2.80;;;;;;;10.85;41.46;93474.34;5092944;28;20401;-38
2022/04/11 13:47:35;;;;;;;6.40;3.20;;;;;;;10.68;40.17;93477.63;5092699;28;20077;-39
2022/04/11 13:50:01;;;;;;;12.40;6.78;;;;;;;10.12;38.84;93466.03;5092595;28;20028;-39
2022/04/11 13:52:26;;;;;;;7.50;4.50;;;;;;;9.85;41.29;93473.78;5092868;28;20028;-40
2022/04/11 13:54:52;;;;;;;8.70;4.85;;;;;;;9.82;41.25;93472.09;5092526;28;20020;-39
2022/04/11 13:57:17;;;;;;;5.63;2.50;;;;;;;9.67;43.11;93463.75;5092716;28;20027;-38
2022/04/11 13:59:43;;;;;;;27.50;9.38;;;;;;;9.86;47.37;93473.25;5092473;28;20281;-39
2022/04/11 14:02:10;;;;;;;13.98;8.10;;;;;;;10.17;44.08;93468.63;5092647;28;20032;-40
2022/04/11 14:04:36;;;;;;;4.75;3.47;;;;;;;10.42;42.03;93464.13;5092584;28;20020;-39
2022/04/11 14:07:01;;;;;;;2.75;2.10;;;;;;;10.43;41.45;93470.38;5091554;28;20075;-39
2022/04/11 14:09:27;;;;;;;3.20;2.25;;;;;;;10.38;42.01;93471.28;5092253;28;20068;-39
2022/04/11 14:11:52;;;;;;;6.53;4.53;;;;;;;10.20;41.72;93475.81;5092179;28;20110;-39
2022/04/11 14:14:18;;;;;;;3.50;3.00;;;;;;;10.00;41.69;93482.16;5091891;28;20057;-39
2022/04/11 14:16:43;;;;;;;5.53;4.18;;;;;;;9.90;43.73;93481.91;5092429;28;20473;-39
2022/04/11 14:19:09;;;;;;;8.48;5.28;;;;;;;9.80;42.90;93489.19;5092351;28;20413;-39
2022/04/11 14:21:34;;;;;;;6.05;4.55;;;;;;;9.51;44.79;93490.47;5092043;28;20032;-39
2022/04/11 14:24:00;;;;;;;6.20;4.95;;;;;;;9.21;43.48;93492.25;5092165;28;20029;-39
2022/04/11 14:26:25;;;;;;;6.47;4.28;;;;;;;8.89;44.00;93487.03;5092169;28;20086;-38
2022/04/11 14:28:50;;;;;;;6.38;4.85;;;;;;;8.85;43.93;93489.38;5091241;28;20480;-38
2022/04/11 14:31:16;;;;;;;17.15;9.20;;;;;;;8.60;44.25;93491.69;5091778;28;20094;-39
2022/04/11 14:33:42;;;;;;;18.48;10.13;;;;;;;8.33;44.83;93488.31;5092087;28;20030;-39
2022/04/11 14:36:09;;;;;;;21.55;10.68;;;;;;;7.99;45.19;93471.00;5092006;28;20031;-38
2022/04/11 14:38:37;;;;;;;6.68;4.85;;;;;;;8.03;45.28;93498.19;5091931;28;20433;-38
2022/04/11 14:41:02;;;;;;;7.50;3.88;;;;;;;7.96;45.58;93502.31;5091945;28;20031;-38
2022/04/11 14:43:28;;;;;;;5.32;4.00;;;;;;;7.99;45.97;93497.75;5091608;28;20055;-38
2022/04/11 14:45:54;;;;;;;4.43;3.53;;;;;;;7.84;44.88;93495.53;5091684;28;20024;-38
2022/04/11 14:48:19;;;;;;;3.72;3.30;;;;;;;7.81;45.71;93487.63;5091782;28;20024;-38
2022/04/11 14:50:45;;;;;;;6.72;4.15;;;;;;;7.97;46.63;93495.53;5091717;28;20028;-38
2022/04/11 14:53:11;;;;;;;6.80;4.55;;;;;;;8.24;47.52;93502.47;5091444;28;20020;-38
2022/04/11 14:55:37;;;;;;;5.97;4.65;;;;;;;8.27;47.83;93506.22;5091648;28;20024;-39
2022/04/11 14:58:03;;;;;;;7.32;4.88;;;;;;;8.52;48.38;93507.41;5091215;28;20024;-38
2022/04/11 15:00:30;;;;;;;4.45;3.67;;;;;;;8.56;45.80;93512.56;5091238;28;20039;-39
2022/04/11 15:02:55;;;;;;;3.40;3.10;;;;;;;8.56;46.90;93512.56;5091161;28;20115;-39
2022/04/11 15:05:21;;;;;;;5.35;3.05;;;;;;;8.52;47.06;93485.38;5091421;28;20016;-38
2022/04/11 15:07:46;;;;;;;3.42;3.13;;;;;;;8.70;45.41;93508.50;5091367;28;20032;-39
2022/04/11 15:10:15;;;;;;;4.63;3.20;;;;;;;8.59;44.35;93512.25;5091082;28;20496;-38
2022/04/11 15:12:43;;;;;;;6.30;4.40;;;;;;;8.48;46.95;93515.25;5091400;28;20393;-38
2022/04/11 15:15:10;;;;;;;6.80;3.55;;;;;;;8.51;47.18;93524.44;5090535;28;20047;-39
2022/04/11 15:17:35;;;;;;;17.98;7.03;;;;;;;8.51;47.35;93527.91;5091235;28;20032;-38
2022/04/11 15:20:02;;;;;;;3.20;2.90;;;;;;;8.17;45.27;93522.38;5091217;28;20420;-38
2022/04/11 15:22:27;;;;;;;3.15;2.72;;;;;;;8.05;46.51;93531.38;5090842;28;20023;-38
2022/04/11 15:24:59;;;;;;;3.13;2.70;;;;;;;8.03;45.56;93529.16;5091094;28;20020;-38
2022/04/11 15:27:25;;;;;;;2.85;2.58;;;;;;;7.94;45.70;93528.84;5091105;28;20028;-39
2022/04/11 15:29:50;;;;;;;3.85;3.40;;;;;;;7.94;46.47;93520.59;5091036;28;20035;-39
2022/04/11 15:32:16;;;;;;;4.20;2.80;;;;;;;7.94;45.79;93529.59;5090691;28;20051;-38
2022/04/11 15:34:42;;;;;;;3.40;3.10;;;;;;;7.80;43.85;93510.88;5090734;28;20027;-39
2022/04/11 15:37:07;;;;;;;5.30;2.92;;;;;;;7.93;46.12;93532.84;5090655;28;20032;-38
2022/04/11 15:39:33;;;;;;;5.22;3.50;;;;;;;8.10;48.63;93550.50;5090722;28;20020;-38
2022/04/11 15:42:02;;;;;;;4.57;3.20;;;;;;;8.22;45.31;93556.53;5090892;28;20412;-39
2022/04/11 15:44:27;;;;;;;4.85;2.92;;;;;;;8.08;42.53;93552.31;5089320;28;20472;-38
2022/04/11 15:46:53;;;;;;;4.32;2.90;;;;;;;8.09;44.44;93548.28;5090795;28;20111;-38
2022/04/11 15:49:18;;;;;;;6.07;5.00;;;;;;;8.16;46.59;93542.91;5090551;28;20024;-38
2022/04/11 15:51:44;;;;;;;8.70;5.68;;;;;;;8.13;45.71;93543.22;5090445;28;20024;-39
2022/04/11 15:54:09;;;;;;;8.98;6.88;;;;;;;8.08;46.16;93535.81;5090739;28;20023;-39
2022/04/11 15:56:35;;;;;;;6.65;4.53;;;;;;;8.04;46.85;93540.88;5090387;28;20063;-39
2022/04/11 15:59:02;;;;;;;2.83;2.50;;;;;;;8.08;45.41;93538.56;5090698;28;20066;-39
2022/04/11 16:01:27;;;;;;;2.80;2.58;;;;;;;8.14;44.72;93542.66;5090396;28;20113;-39
2022/04/11 16:03:53;;;;;;;6.25;4.50;;;;;;;8.25;45.37;93550.72;5090291;28;20551;-38
2022/04/11 16:06:18;;;;;;;6.10;3.35;;;;;;;8.29;46.43;93556.66;5090265;28;20024;-39
2022/04/11 16:08:44;;;;;;;7.60;5.20;;;;;;;8.08;44.36;93560.56;5090588;28;20105;-38
2022/04/11 16:11:10;;;;;;;6.05;4.25;;;;;;;8.13;44.70;93556.97;5090295;28;20436;-39
2022/04/11 16:13:37;;;;;;;4.55;3.90;;;;;;;7.88;44.13;93558.47;5090271;28;20024;-38
2022/04/11 16:16:03;;;;;;;7.45;4.97;;;;;;;7.86;45.89;93550.00;5090036;28;20040;-38
2022/04/11 16:18:29;;;;;;;8.80;5.05;;;;;;;7.84;45.80;93556.00;5090491;28;20034;-39
2022/04/11 16:20:54;;;;;;;7.90;4.55;;;;;;;7.75;46.60;93552.97;5090445;28;20660;-38
2022/04/11 16:23:20;;;;;;;12.75;4.75;;;;;;;7.67;47.29;93560.34;5088991;28;20389;-39
2022/04/11 16:25:45;;;;;;;7.38;5.32;;;;;;;7.51;45.93;93570.38;5090065;28;20024;-39
2022/04/11 16:28:11;;;;;;;8.48;6.15;;;;;;;7.48;45.76;93572.16;5090064;28;20032;-39
2022/04/11 16:30:36;;;;;;;11.77;8.80;;;;;;;7.37;46.80;93580.59;5090003;28;20028;-38
2022/04/11 16:33:02;;;;;;;9.45;4.78;;;;;;;7.19;45.82;93580.66;5089985;28;20035;-38
2022/04/11 16:35:29;;;;;;;5.40;4.38;;;;;;;7.09;45.11;93583.03;5090014;28;20035;-38
2022/04/11 16:37:56;;;;;;;6.13;4.22;;;;;;;6.98;43.59;93585.19;5089940;28;20032;-38
2022/04/11 16:40:24;;;;;;;11.73;5.93;;;;;;;6.91;44.89;93594.78;5088842;28;20024;-38
2022/04/11 16:42:50;;;;;;;7.00;3.15;;;;;;;6.85;43.71;93574.91;5089996;28;20056;-38
2022/04/11 16:45:16;;;;;;;8.20;5.18;;;;;;;6.65;44.36;93586.41;5089951;28;20028;-38
2022/04/11 16:47:41;;;;;;;2.08;1.95;;;;;;;6.40;42.51;93587.75;5089928;28;20028;-38
2022/04/11 16:50:08;;;;;;;5.53;3.60;;;;;;;6.24;44.21;93567.50;5089855;28;20039;-38
2022/04/11 16:52:34;;;;;;;4.40;3.85;;;;;;;6.37;45.48;93603.25;5093024;28;20081;-39
2022/04/11 16:55:00;;;;;;;10.18;6.05;;;;;;;6.17;44.63;93601.03;5093621;28;20028;-39
2022/04/11 16:57:26;;;;;;;17.02;8.30;;;;;;;6.01;45.55;93613.66;5093644;28;20028;-38
2022/04/11 16:59:52;;;;;;;19.33;8.40;;;;;;;5.96;45.98;93606.22;5093661;28;20023;-38
2022/04/11 17:02:17;;;;;;;20.65;10.23;;;;;;;5.87;45.86;93614.03;5093558;28;20024;-39
2022/04/11 17:04:43;;;;;;;21.38;8.27;;;;;;;5.70;45.86;93616.94;5093458;28;20046;-39
2022/04/11 17:07:09;;;;;;;23.35;10.43;;;;;;;5.74;45.22;93620.13;5093410;28;20028;-38
2022/04/11 17:09:34;;;;;;;14.98;7.20;;;;;;;5.61;45.44;93624.75;5093455;28;20028;-38
2022/04/11 17:12:00;;;;;;;12.85;7.18;;;;;;;5.58;47.52;93632.00;5093613;28;20502;-38
2022/04/11 17:14:26;;;;;;;10.93;6.30;;;;;;;5.54;45.40;93639.75;5093062;28;20024;-38
2022/04/11 17:19:36;;;;;;;6.93;4.72;;;;;;;5.37;46.84;93644.63;5093359;28;20480;-38
2022/04/11 17:22:01;;;;;;;9.23;5.13;;;;;;;5.32;45.98;93651.63;5093255;28;20032;-38
2022/04/11 17:24:27;;;;;;;9.80;4.80;;;;;;;5.31;45.90;93650.13;5093397;28;20020;-38
2022/04/11 17:26:53;;;;;;;11.15;6.43;;;;;;;5.16;47.00;93647.00;5093077;28;20051;-38
2022/04/11 17:29:19;;;;;;;11.15;6.95;;;;;;;5.21;47.18;93650.97;5093040;28;20032;-38
2022/04/11 17:31:45;;;;;;;5.43;3.47;;;;;;;5.27;46.35;93668.09;5093034;28;20024;-38
2022/04/11 17:34:10;;;;;;;8.77;4.93;;;;;;;5.22;47.76;93674.34;5092921;28;20023;-38
2022/04/11 17:36:36;;;;;;;7.30;4.03;;;;;;;5.26;46.56;93677.56;5092945;28;20024;-38
2022/04/11 17:39:02;;;;;;;14.82;7.50;;;;;;;5.32;47.31;93683.72;5093114;28;20032;-38
2022/04/11 17:41:27;;;;;;;14.48;6.82;;;;;;;5.30;47.51;93681.50;5093153;28;20028;-39
2022/04/11 17:43:53;;;;;;;17.42;7.40;;;;;;;5.29;47.45;93690.97;5093087;28;20568;-39
2022/04/11 17:46:18;;;;;;;23.30;9.77;;;;;;;5.26;47.49;93686.50;5091278;28;20073;-38
2022/04/11 17:48:44;;;;;;;5.32;3.45;;;;;;;5.28;48.14;93691.47;5092761;28;20118;-38
2022/04/11 17:51:10;;;;;;;7.90;3.83;;;;;;;5.00;48.71;93667.00;5092548;28;20107;-39
2022/04/11 17:53:36;;;;;;;14.60;4.30;;;;;;;5.07;49.70;93699.31;5091819;28;20028;-38
2022/04/11 17:56:03;;;;;;;6.32;3.50;;;;;;;4.98;50.40;93701.63;5092532;28;20028;-38
2022/04/11 17:58:29;;;;;;;4.05;2.92;;;;;;;4.92;49.95;93714.56;5092439;28;20544;-38
2022/04/11 18:00:55;;;;;;;3.03;2.80;;;;;;;4.94;50.80;93707.34;5092473;28;20024;-39